Time;durP1;ratioP1;P1;durP2;ratioP2;P2;SDS_P1;SDS_P2;PMS_P1;PMS_P2;Temp;Humidity;BMP_temperature;BMP_pressure;BME280_temperature;BME280_humidity;BME280_pressure;Samples;Min_cycle;Max_cycle;Signal;HPM_P1;HPM_P2
2022/07/06 07:59:02;;;;;;;1.63;1.10;;;;;;;16.78;53.47;102475.16;5317882;27;20363;-66
2022/07/06 08:01:34;;;;;;;1.48;0.75;;;;;;;16.91;53.56;102468.03;5293618;28;20051;-66
2022/07/06 08:04:05;;;;;;;2.28;0.82;;;;;;;16.92;53.45;102469.69;5300123;27;20103;-66
2022/07/06 08:06:37;;;;;;;1.00;0.70;;;;;;;16.91;52.39;102462.44;5300546;28;20103;-66
2022/07/06 08:09:08;;;;;;;1.33;1.08;;;;;;;17.00;52.62;102460.69;5299626;28;20060;-65
2022/07/06 08:11:39;;;;;;;1.42;1.33;;;;;;;16.97;52.19;102457.63;5300581;28;20035;-66
2022/07/06 08:14:11;;;;;;;2.60;1.02;;;;;;;17.00;52.68;102455.09;5300486;28;20498;-66
2022/07/06 08:16:43;;;;;;;1.55;0.75;;;;;;;17.08;52.32;102448.00;5299056;28;20017;-66
2022/07/06 08:19:15;;;;;;;3.10;0.95;;;;;;;17.10;52.68;102454.97;5294418;28;20384;-66
2022/07/06 08:21:46;;;;;;;1.42;0.85;;;;;;;17.17;52.34;102463.03;5299203;28;20028;-66
2022/07/06 08:24:17;;;;;;;2.95;0.80;;;;;;;17.19;51.99;102455.16;5300604;28;20067;-67
2022/07/06 08:26:49;;;;;;;1.08;0.70;;;;;;;17.29;52.31;102459.84;5305145;28;20020;-67
2022/07/06 08:29:20;;;;;;;1.65;0.93;;;;;;;17.55;53.27;102455.59;5299522;28;20432;-67
2022/07/06 08:31:51;;;;;;;2.22;0.70;;;;;;;17.58;52.48;102454.19;5299640;28;20107;-67
2022/07/06 08:34:23;;;;;;;0.82;0.70;;;;;;;17.73;53.15;102455.97;5300153;28;20480;-66
2022/07/06 08:36:55;;;;;;;1.45;1.00;;;;;;;17.78;52.40;102453.09;5293494;28;20039;-66
2022/07/06 08:39:26;;;;;;;0.93;0.70;;;;;;;17.91;53.61;102451.56;5300073;28;20029;-66
2022/07/06 08:42:00;;;;;;;1.45;0.80;;;;;;;17.94;53.73;102453.78;5300235;28;20053;-67
2022/07/06 08:44:32;;;;;;;2.75;0.90;;;;;;;17.80;53.23;102457.31;5298797;28;20025;-66
2022/07/06 08:47:06;;;;;;;4.10;1.33;;;;;;;17.92;52.14;102453.22;5299224;28;20476;-66
2022/07/06 08:49:38;;;;;;;2.60;0.90;;;;;;;17.91;51.30;102457.19;5298962;28;20048;-67
2022/07/06 08:52:10;;;;;;;0.70;0.60;;;;;;;18.01;51.32;102443.00;5295473;28;20468;-69
2022/07/06 08:54:41;;;;;;;1.95;1.15;;;;;;;18.33;51.50;102447.03;5298106;28;20059;-69
2022/07/06 08:57:12;;;;;;;18.23;13.48;;;;;;;18.27;51.63;102437.03;5298019;28;20063;-69
2022/07/06 08:59:44;;;;;;;13.98;10.60;;;;;;;18.30;53.41;102433.59;5299582;28;20024;-69
2022/07/06 09:02:19;;;;;;;10.25;8.80;;;;;;;18.20;52.81;102441.06;5298815;28;20016;-68
2022/07/06 09:04:52;;;;;;;1.95;0.98;;;;;;;18.13;52.00;102443.41;5298853;28;20036;-67
2022/07/06 09:07:28;;;;;;;3.60;1.98;;;;;;;18.04;52.14;102443.22;5299581;28;20063;-66
2022/07/06 09:10:00;;;;;;;2.78;1.33;;;;;;;18.10;52.56;102446.81;5281690;28;20024;-67
2022/07/06 09:12:31;;;;;;;2.83;0.90;;;;;;;18.12;52.85;102440.88;5283933;28;20537;-67
2022/07/06 09:15:03;;;;;;;2.95;1.00;;;;;;;18.25;51.86;102441.00;5284694;28;20104;-67
2022/07/06 09:17:39;;;;;;;2.88;1.00;;;;;;;18.27;50.67;102443.47;5284155;28;20059;-68
2022/07/06 09:20:12;;;;;;;2.03;1.00;;;;;;;18.33;50.98;102442.28;5274116;28;20062;-68
2022/07/06 09:22:43;;;;;;;1.95;1.20;;;;;;;18.42;50.84;102436.81;5284938;28;20082;-69
2022/07/06 09:25:16;;;;;;;3.15;1.33;;;;;;;18.57;51.35;102441.34;5287528;28;20463;-68
2022/07/06 09:27:49;;;;;;;2.17;1.17;;;;;;;18.60;50.91;102441.56;5281842;28;20056;-67
2022/07/06 09:30:23;;;;;;;3.20;1.73;;;;;;;18.64;49.88;102451.06;5284471;28;20048;-67
2022/07/06 09:32:57;;;;;;;6.18;1.75;;;;;;;18.80;50.33;102450.84;5284458;28;20031;-67
2022/07/06 09:35:35;;;;;;;2.17;0.90;;;;;;;18.92;49.55;102445.56;5284229;28;20032;-69
2022/07/06 09:38:12;;;;;;;2.58;1.00;;;;;;;19.08;48.93;102446.97;5284077;28;20035;-69
2022/07/06 09:40:45;;;;;;;3.30;1.10;;;;;;;19.05;48.50;102452.38;5282640;28;20024;-66
2022/07/06 09:43:22;;;;;;;3.97;1.10;;;;;;;19.01;48.80;102443.72;5279278;28;20028;-67
2022/07/06 09:45:56;;;;;;;1.98;1.00;;;;;;;18.68;48.70;102452.09;5282925;28;20032;-67
2022/07/06 09:48:28;;;;;;;2.42;1.20;;;;;;;18.71;48.78;102461.06;5284398;28;20435;-69
2022/07/06 09:51:06;;;;;;;3.80;3.15;;;;;;;18.55;48.93;102452.88;5283890;28;20044;-69
2022/07/06 09:53:37;;;;;;;2.60;1.13;;;;;;;18.75;48.84;102450.88;5283599;28;20541;-69
2022/07/06 09:56:09;;;;;;;1.75;1.00;;;;;;;18.76;49.30;102449.78;5283927;28;20044;-69
2022/07/06 09:58:40;;;;;;;2.05;0.93;;;;;;;18.64;49.27;102451.06;5283278;28;20048;-69
2022/07/06 10:01:11;;;;;;;1.15;0.77;;;;;;;18.92;48.48;102454.00;5282264;28;20090;-70
2022/07/06 10:03:43;;;;;;;1.58;0.80;;;;;;;18.92;46.96;102450.34;5284405;28;20063;-70
2022/07/06 10:06:14;;;;;;;2.30;1.13;;;;;;;18.85;47.19;102457.19;5283669;28;20463;-70
2022/07/06 10:08:46;;;;;;;4.93;1.23;;;;;;;18.96;48.07;102457.03;5283623;28;20060;-70
2022/07/06 10:11:17;;;;;;;3.65;1.58;;;;;;;18.60;48.14;102458.41;5283864;28;20527;-70
2022/07/06 10:13:54;;;;;;;4.38;2.47;;;;;;;18.69;47.94;102459.41;5283700;28;20032;-69
2022/07/06 10:16:25;;;;;;;4.38;1.13;;;;;;;18.95;48.43;102456.19;5283249;28;20028;-69
2022/07/06 10:18:58;;;;;;;1.48;1.02;;;;;;;18.85;48.21;102462.81;5278116;28;20383;-70
2022/07/06 10:21:31;;;;;;;1.92;0.80;;;;;;;18.95;47.75;102463.81;5282276;28;20422;-70
2022/07/06 10:24:06;;;;;;;1.80;0.80;;;;;;;18.90;47.78;102461.91;5283326;28;20108;-71
2022/07/06 10:26:38;;;;;;;2.90;1.10;;;;;;;18.95;47.74;102459.00;5283340;28;20464;-71
2022/07/06 10:29:10;;;;;;;1.95;1.13;;;;;;;18.98;46.57;102458.38;5283580;28;20028;-71
2022/07/06 10:31:45;;;;;;;3.60;0.85;;;;;;;19.01;46.75;102465.38;5283728;28;20028;-71
2022/07/06 10:34:18;;;;;;;;;;;;;;;19.16;46.77;102464.28;5278871;28;20021;-72
2022/07/06 10:36:54;;;;;;;75.45;67.95;;;;;;;19.02;46.36;102461.41;5282734;28;20006;-71
2022/07/06 10:42:41;;;;;;;40.45;36.58;;;;;;;19.13;46.58;102453.66;5282767;28;20028;-73
2022/07/06 10:45:15;;;;;;;4.60;1.38;;;;;;;18.97;46.32;102455.88;5283507;28;20025;-71
2022/07/06 10:47:46;;;;;;;1.17;0.77;;;;;;;19.08;46.86;102452.59;5282932;28;20082;-72
2022/07/06 10:50:18;;;;;;;3.38;0.93;;;;;;;19.20;46.45;102454.06;5282468;28;20028;-73
2022/07/06 10:52:50;;;;;;;5.50;0.90;;;;;;;19.12;46.39;102449.97;5282701;28;20031;-71
2022/07/06 10:55:36;;;;;;;2.17;0.73;;;;;;;19.27;46.38;102448.88;5284068;28;20021;-71
2022/07/06 10:58:07;;;;;;;4.75;2.40;;;;;;;19.29;46.35;102455.00;5282580;28;20385;-71
2022/07/06 11:00:52;;;;;;;4.13;1.40;;;;;;;19.36;46.27;102447.00;5282732;28;20032;-71
2022/07/06 11:03:37;;;;;;;2.80;1.13;;;;;;;19.50;45.70;102442.22;5269392;28;20781;-71
2022/07/06 11:06:23;;;;;;;2.90;0.82;;;;;;;19.44;44.85;102443.47;5277077;28;20290;-71
2022/07/06 11:08:58;;;;;;;0.93;0.77;;;;;;;19.39;44.67;102440.75;5281735;28;20160;-70
2022/07/06 11:11:32;;;;;;;;;;;;;;;19.60;45.23;102445.97;5281266;28;20020;-71
2022/07/06 11:14:06;;;;;;;34.20;30.50;;;;;;;19.57;45.62;102438.16;5283537;28;19913;-71
2022/07/06 11:17:01;;;;;;;2.90;1.30;;;;;;;19.56;44.85;102445.78;5283373;28;20031;-72
2022/07/06 11:19:32;;;;;;;0.95;0.80;;;;;;;19.47;44.26;102436.38;5282547;28;20480;-71
2022/07/06 11:22:08;;;;;;;2.17;0.90;;;;;;;19.47;44.22;102433.56;5283216;28;20202;-72
2022/07/06 11:24:41;;;;;;;2.10;1.27;;;;;;;19.58;44.40;102434.19;5291932;28;20479;-72
2022/07/06 11:27:12;;;;;;;1.08;0.85;;;;;;;19.68;45.00;102436.81;5278150;28;20026;-72
2022/07/06 11:29:45;;;;;;;2.67;0.80;;;;;;;19.75;45.07;102442.88;5282674;28;20038;-72
2022/07/06 11:32:23;;;;;;;2.17;0.90;;;;;;;19.78;44.81;102436.63;5282253;28;20025;-72
2022/07/06 11:34:54;;;;;;;2.53;1.17;;;;;;;19.80;44.23;102439.94;5283528;28;20573;-72
2022/07/06 11:37:26;;;;;;;1.75;1.10;;;;;;;19.99;45.18;102439.81;5283180;28;20111;-72
2022/07/06 11:40:06;;;;;;;3.60;1.20;;;;;;;20.03;44.17;102423.13;5281962;28;20043;-72
2022/07/06 11:42:38;;;;;;;1.88;0.80;;;;;;;20.03;42.98;102420.31;5282176;28;20021;-72
2022/07/06 11:45:10;;;;;;;3.50;1.45;;;;;;;19.90;41.43;102422.00;5282695;28;20032;-72
2022/07/06 11:47:41;;;;;;;3.60;3.25;;;;;;;20.03;42.15;102409.88;5282294;28;20024;-72
2022/07/06 11:50:20;;;;;;;1.98;0.93;;;;;;;20.08;42.59;102404.13;5283273;28;20128;-74
2022/07/06 11:52:51;;;;;;;2.00;0.88;;;;;;;20.05;42.10;102401.97;5282314;28;20104;-72
2022/07/06 11:55:22;;;;;;;1.35;0.80;;;;;;;20.27;41.22;102400.31;5282678;28;20140;-72
2022/07/06 11:57:57;;;;;;;1.48;0.70;;;;;;;20.39;41.70;102400.59;5282687;28;20083;-72
2022/07/06 12:00:28;;;;;;;2.42;0.88;;;;;;;20.35;40.85;102408.88;5280213;28;20032;-70
2022/07/06 12:03:00;;;;;;;1.80;0.80;;;;;;;20.07;39.46;102408.13;5282907;28;20615;-72
2022/07/06 12:05:32;;;;;;;1.65;0.75;;;;;;;20.32;39.46;102406.66;5282871;28;20056;-71
2022/07/06 12:08:08;;;;;;;2.80;0.80;;;;;;;20.59;39.70;102400.13;5281987;28;20478;-81
2022/07/06 12:10:39;;;;;;;2.83;1.02;;;;;;;20.87;39.10;102394.34;5282824;28;20384;-74
2022/07/06 12:13:10;;;;;;;3.55;0.65;;;;;;;20.57;38.92;102387.50;5280917;28;20020;-72
2022/07/06 12:15:42;;;;;;;7.30;4.53;;;;;;;20.63;39.35;102383.38;5280865;28;20529;-73
2022/07/06 12:18:13;;;;;;;1.90;1.23;;;;;;;20.56;39.30;102383.03;5281781;28;20502;-73
2022/07/06 12:20:44;;;;;;;3.78;0.80;;;;;;;20.71;38.98;102368.53;5281690;28;20511;-72
2022/07/06 12:23:16;;;;;;;27.17;21.38;;;;;;;20.75;38.91;102366.72;5282138;28;20449;-71
2022/07/06 12:25:53;;;;;;;2.13;1.20;;;;;;;20.78;39.04;102376.53;5283416;28;20056;-73
2022/07/06 12:28:24;;;;;;;3.15;1.27;;;;;;;20.97;39.61;102371.50;5281261;28;20020;-73
2022/07/06 12:30:56;;;;;;;1.83;0.95;;;;;;;21.05;38.68;102372.69;5289767;28;20024;-73
2022/07/06 12:33:27;;;;;;;3.58;1.50;;;;;;;21.24;39.26;102367.66;5283904;28;20027;-73
2022/07/06 12:36:15;;;;;;;2.65;1.10;;;;;;;21.24;39.17;102362.00;5279030;28;20032;-73
2022/07/06 12:38:48;;;;;;;4.28;1.75;;;;;;;21.67;39.82;102369.78;5281528;28;20387;-73
2022/07/06 12:41:25;;;;;;;2.25;1.00;;;;;;;21.76;39.36;102369.00;5282462;28;20024;-71
2022/07/06 12:44:09;;;;;;;1.83;0.88;;;;;;;21.50;39.17;102361.28;5278616;28;20483;-73
2022/07/06 12:46:41;;;;;;;2.45;0.90;;;;;;;21.49;38.94;102368.09;5265921;28;20033;-72
2022/07/06 12:49:22;;;;;;;1.90;1.13;;;;;;;21.46;38.81;102363.91;5275579;28;20090;-72
2022/07/06 12:52:06;;;;;;;8.18;6.35;;;;;;;21.70;38.86;102360.69;5279466;28;20039;-71
2022/07/06 12:54:45;;;;;;;2.88;1.55;;;;;;;21.43;38.76;102355.28;5286137;28;20064;-72
2022/07/06 12:57:23;;;;;;;3.90;1.25;;;;;;;21.66;39.21;102361.66;5284341;28;20044;-73
2022/07/06 12:59:54;;;;;;;3.85;1.10;;;;;;;21.99;38.56;102364.03;5286174;28;20191;-73
2022/07/06 13:02:30;;;;;;;1.80;0.90;;;;;;;21.99;37.84;102370.50;5285694;28;20103;-69
2022/07/06 13:05:06;;;;;;;3.53;2.63;;;;;;;22.12;37.77;102363.88;5285446;28;20310;-74
2022/07/06 13:07:46;;;;;;;2.47;1.33;;;;;;;22.28;38.80;102355.75;5279803;28;20495;-66
2022/07/06 13:10:18;;;;;;;3.33;1.27;;;;;;;22.61;37.95;102360.03;5284595;28;20074;-71
2022/07/06 13:12:50;;;;;;;4.72;1.10;;;;;;;22.55;37.59;102360.22;5286173;28;20066;-71
2022/07/06 13:15:21;;;;;;;5.60;1.50;;;;;;;22.27;37.86;102361.75;5285602;28;20033;-71
2022/07/06 13:17:52;;;;;;;2.78;1.40;;;;;;;22.26;38.19;102357.25;5284601;28;20082;-72
2022/07/06 13:20:24;;;;;;;2.28;1.15;;;;;;;22.35;38.18;102353.25;5285260;28;20021;-72
2022/07/06 13:22:55;;;;;;;2.08;1.10;;;;;;;22.62;38.00;102350.38;5285490;28;20111;-71
2022/07/06 13:25:27;;;;;;;2.95;1.10;;;;;;;22.51;38.25;102359.22;5279385;28;20017;-72
2022/07/06 13:27:58;;;;;;;1.63;0.88;;;;;;;22.43;38.17;102360.06;5283966;28;20128;-72
2022/07/06 13:30:29;;;;;;;3.60;1.67;;;;;;;22.31;37.40;102351.41;5285368;28;20043;-72
2022/07/06 13:33:03;;;;;;;4.88;1.98;;;;;;;22.46;37.92;102353.72;5283295;28;20480;-71
2022/07/06 13:35:35;;;;;;;1.60;1.33;;;;;;;22.75;38.06;102349.34;5285187;28;20456;-72
2022/07/06 13:38:06;;;;;;;1.77;1.20;;;;;;;22.67;37.86;102344.53;5283843;28;20025;-72
2022/07/06 13:40:38;;;;;;;5.00;1.85;;;;;;;22.90;37.43;102342.31;5284440;28;20113;-72
2022/07/06 13:43:10;;;;;;;1.92;1.10;;;;;;;22.88;37.08;102337.00;5284894;28;20017;-71
2022/07/06 13:45:42;;;;;;;2.83;1.20;;;;;;;22.73;36.53;102331.91;5284236;28;20021;-74
2022/07/06 13:48:14;;;;;;;1.92;1.08;;;;;;;23.00;36.92;102333.50;5284555;28;20058;-75
2022/07/06 13:50:45;;;;;;;3.97;1.77;;;;;;;22.85;37.34;102326.34;5284967;28;20047;-75
2022/07/06 13:53:16;;;;;;;2.28;1.10;;;;;;;23.06;36.95;102322.81;5284264;28;20048;-75
2022/07/06 13:55:48;;;;;;;3.67;1.40;;;;;;;23.26;36.26;102315.56;5285211;28;20047;-75
2022/07/06 13:58:19;;;;;;;1.73;0.98;;;;;;;23.31;36.95;102309.72;5282502;28;20051;-75
2022/07/06 14:00:51;;;;;;;5.90;1.20;;;;;;;22.94;36.55;102315.03;5283945;28;20134;-72
2022/07/06 14:03:31;;;;;;;2.70;1.80;;;;;;;22.70;37.52;102309.94;5284495;28;20024;-76
2022/07/06 14:06:03;;;;;;;3.25;1.30;;;;;;;22.99;37.57;102310.03;5284389;28;20067;-73
2022/07/06 14:08:36;;;;;;;4.00;1.27;;;;;;;22.93;37.50;102317.03;5284718;28;20028;-71
2022/07/06 14:11:08;;;;;;;3.80;1.83;;;;;;;23.07;36.73;102316.00;5284600;28;20414;-71
2022/07/06 14:13:40;;;;;;;2.40;1.17;;;;;;;22.72;37.41;102307.59;5284023;28;20028;-71
2022/07/06 14:16:11;;;;;;;2.42;1.35;;;;;;;22.94;37.74;102306.53;5278067;28;20062;-72
2022/07/06 14:18:43;;;;;;;2.05;1.20;;;;;;;22.94;37.66;102313.03;5284649;28;20563;-72
2022/07/06 14:21:14;;;;;;;4.53;1.48;;;;;;;23.06;38.24;102298.19;5283203;28;20035;-72
2022/07/06 14:23:45;;;;;;;15.80;13.20;;;;;;;22.73;37.56;102295.16;5283916;28;20032;-72
2022/07/06 14:26:17;;;;;;;1.90;1.45;;;;;;;22.78;38.01;102289.31;5291572;28;20469;-72
2022/07/06 14:28:48;;;;;;;6.60;1.75;;;;;;;22.94;37.92;102284.72;5304516;28;20048;-71
2022/07/06 14:31:20;;;;;;;2.88;1.48;;;;;;;23.16;37.84;102279.97;5296551;28;20048;-70
2022/07/06 14:33:51;;;;;;;3.00;2.05;;;;;;;23.35;37.73;102282.38;5279027;28;20020;-72
2022/07/06 14:36:22;;;;;;;1.98;1.30;;;;;;;23.08;37.02;102269.56;5283658;28;20032;-71
2022/07/06 14:38:54;;;;;;;2.80;1.33;;;;;;;23.03;37.80;102276.22;5283993;28;20025;-72
2022/07/06 14:41:25;;;;;;;3.95;1.58;;;;;;;22.90;38.07;102269.59;5283380;28;20448;-72
2022/07/06 14:43:58;;;;;;;3.53;1.42;;;;;;;22.91;38.24;102271.28;5283991;28;20025;-72
2022/07/06 14:46:29;;;;;;;3.90;1.20;;;;;;;23.04;38.28;102268.59;5284083;28;20025;-72
2022/07/06 14:49:00;;;;;;;3.17;1.13;;;;;;;22.62;38.94;102269.22;5279617;28;20496;-72
2022/07/06 14:51:32;;;;;;;3.35;1.30;;;;;;;22.63;39.21;102267.25;5281691;28;20033;-72
2022/07/06 14:54:03;;;;;;;3.42;1.17;;;;;;;22.60;39.47;102262.22;5283593;28;20024;-72
2022/07/06 14:56:35;;;;;;;3.47;1.30;;;;;;;22.67;39.32;102265.38;5282684;28;20101;-71
2022/07/06 14:59:07;;;;;;;3.33;1.20;;;;;;;22.73;39.55;102259.22;5278370;28;20476;-72
2022/07/06 15:01:38;;;;;;;5.38;1.30;;;;;;;22.61;39.73;102261.91;5275515;28;20032;-73
2022/07/06 15:04:10;;;;;;;3.67;1.77;;;;;;;22.71;39.47;102269.19;5282897;28;20078;-72
2022/07/06 15:06:41;;;;;;;2.78;1.55;;;;;;;22.56;39.78;102256.44;5276803;28;20518;-69
2022/07/06 15:09:13;;;;;;;2.90;1.35;;;;;;;22.64;39.71;102251.91;5283306;28;20024;-73
2022/07/06 15:11:45;;;;;;;3.85;1.60;;;;;;;22.53;39.34;102252.28;5281876;28;20487;-72
2022/07/06 15:14:17;;;;;;;3.97;1.35;;;;;;;22.57;40.08;102249.59;5284018;28;20024;-72
2022/07/06 15:16:48;;;;;;;5.22;2.03;;;;;;;22.61;39.82;102247.78;5281200;28;20024;-71
2022/07/06 15:19:20;;;;;;;4.85;2.00;;;;;;;22.80;40.29;102247.34;5282323;28;20020;-71
2022/07/06 15:21:51;;;;;;;3.95;1.85;;;;;;;22.58;40.17;102249.28;5282828;28;20463;-71
2022/07/06 15:24:24;;;;;;;2.25;1.40;;;;;;;22.64;40.48;102246.25;5281175;28;20031;-69
2022/07/06 15:26:55;;;;;;;4.63;1.73;;;;;;;22.71;40.69;102240.91;5287189;28;20095;-71
2022/07/06 15:29:27;;;;;;;2.88;1.40;;;;;;;22.63;40.80;102242.63;5283760;28;20097;-71
2022/07/06 15:31:58;;;;;;;4.10;2.03;;;;;;;22.47;40.75;102248.00;5280424;28;20483;-69
2022/07/06 15:34:29;;;;;;;31.00;27.67;;;;;;;22.46;40.65;102249.16;5271223;28;20043;-69
2022/07/06 15:37:01;;;;;;;1.73;1.60;;;;;;;22.56;41.00;102242.31;5282435;28;20697;-69
2022/07/06 15:39:32;;;;;;;4.50;1.42;;;;;;;22.47;41.85;102248.00;5277400;28;20079;-71
2022/07/06 15:42:04;;;;;;;7.93;1.70;;;;;;;22.43;41.74;102254.66;5280335;28;20051;-72
2022/07/06 15:44:35;;;;;;;5.32;1.60;;;;;;;22.40;42.11;102239.19;5282884;28;20020;-73
2022/07/06 15:47:07;;;;;;;3.42;1.33;;;;;;;22.52;42.35;102228.03;5283045;28;20036;-71
2022/07/06 15:49:38;;;;;;;4.25;1.80;;;;;;;22.63;41.95;102227.66;5282316;28;20028;-71
2022/07/06 15:52:10;;;;;;;3.63;1.60;;;;;;;22.66;42.41;102229.81;5281402;28;20082;-69
2022/07/06 15:54:42;;;;;;;3.65;1.52;;;;;;;22.55;41.93;102230.16;5283232;28;20102;-69
2022/07/06 15:57:17;;;;;;;3.67;1.80;;;;;;;22.46;42.53;102229.34;5277116;28;20041;-69
2022/07/06 15:59:48;;;;;;;2.90;1.45;;;;;;;22.28;42.14;102228.59;5281929;28;20120;-70
2022/07/06 16:02:20;;;;;;;3.97;1.50;;;;;;;22.39;42.63;102222.56;5282359;28;20159;-71
2022/07/06 16:04:51;;;;;;;2.85;2.03;;;;;;;22.32;43.02;102217.47;5282720;28;20021;-70
2022/07/06 16:07:22;;;;;;;3.78;1.58;;;;;;;22.13;43.00;102223.44;5282150;28;20113;-70
2022/07/06 16:09:53;;;;;;;7.15;2.60;;;;;;;22.09;43.50;102209.16;5279114;28;20028;-70
2022/07/06 16:12:25;;;;;;;5.03;1.92;;;;;;;22.12;43.62;102208.47;5271681;28;20028;-71
2022/07/06 16:14:56;;;;;;;4.53;1.67;;;;;;;21.97;44.08;102206.19;5267085;28;20021;-72
2022/07/06 16:17:28;;;;;;;5.32;1.95;;;;;;;22.19;43.82;102209.94;5281342;28;20061;-71
2022/07/06 16:19:59;;;;;;;4.03;1.90;;;;;;;22.23;44.18;102214.63;5274494;28;20027;-71
2022/07/06 16:22:30;;;;;;;4.70;1.90;;;;;;;22.01;44.20;102210.00;5270900;28;20033;-70
2022/07/06 16:25:02;;;;;;;3.85;2.00;;;;;;;21.93;45.33;102208.00;5266232;28;20036;-70
2022/07/06 16:27:36;;;;;;;2.88;2.05;;;;;;;22.06;45.25;102203.34;5274094;28;20024;-70
2022/07/06 16:30:09;;;;;;;3.63;2.10;;;;;;;22.04;45.44;102194.38;5286191;28;20082;-70
2022/07/06 16:32:40;;;;;;;6.20;2.95;;;;;;;22.04;45.60;102192.38;5282585;28;20104;-71
2022/07/06 16:35:11;;;;;;;6.05;2.50;;;;;;;22.00;45.66;102193.38;5274497;28;20027;-72
2022/07/06 16:37:43;;;;;;;4.70;2.78;;;;;;;22.07;45.67;102186.06;5285239;28;20036;-69
2022/07/06 16:40:14;;;;;;;8.90;2.55;;;;;;;22.13;45.87;102181.88;5285887;28;20017;-69
2022/07/06 16:42:45;;;;;;;5.15;2.17;;;;;;;22.02;45.89;102185.41;5285606;28;20021;-69
2022/07/06 16:45:17;;;;;;;4.53;2.53;;;;;;;21.93;46.19;102183.44;5283608;28;20044;-69
2022/07/06 16:47:48;;;;;;;4.88;2.53;;;;;;;21.95;46.38;102173.78;5265335;28;20068;-69
2022/07/06 16:50:20;;;;;;;3.50;2.47;;;;;;;21.99;46.50;102169.16;5281677;28;20476;-68
2022/07/06 16:52:52;;;;;;;6.00;2.13;;;;;;;21.96;46.93;102165.00;5285641;28;20103;-68
2022/07/06 16:55:23;;;;;;;4.10;2.95;;;;;;;21.89;47.55;102165.50;5283802;28;20487;-69
2022/07/06 16:57:54;;;;;;;5.68;3.10;;;;;;;21.88;47.61;102168.66;5278580;28;20131;-68
2022/07/06 17:00:26;;;;;;;3.90;2.65;;;;;;;21.98;47.52;102168.28;5271627;28;20479;-69
2022/07/06 17:02:57;;;;;;;3.20;2.05;;;;;;;21.99;47.65;102164.31;5283632;28;20032;-69
2022/07/06 17:05:29;;;;;;;11.15;3.15;;;;;;;22.03;47.86;102159.66;5284565;28;20472;-69
2022/07/06 17:08:01;;;;;;;6.95;3.00;;;;;;;22.05;47.92;102165.78;5285784;28;20031;-69
2022/07/06 17:10:32;;;;;;;5.93;2.83;;;;;;;21.79;48.64;102160.19;5278706;28;20075;-68
2022/07/06 17:13:03;;;;;;;3.47;3.08;;;;;;;21.83;48.40;102158.38;5281833;28;20028;-69
2022/07/06 17:15:35;;;;;;;4.82;2.55;;;;;;;21.68;48.71;102156.91;5281651;28;20029;-68
2022/07/06 17:18:06;;;;;;;5.57;2.22;;;;;;;21.75;48.95;102153.56;5275652;28;20471;-69
2022/07/06 17:20:37;;;;;;;4.57;2.38;;;;;;;21.66;49.01;102153.59;5275281;28;20023;-69
2022/07/06 17:23:09;;;;;;;3.85;2.55;;;;;;;21.75;49.31;102152.72;5271640;28;20062;-68
2022/07/06 17:25:40;;;;;;;6.18;2.58;;;;;;;21.69;48.92;102144.44;5285514;28;20017;-68
2022/07/06 17:28:12;;;;;;;5.13;2.67;;;;;;;21.64;48.93;102143.78;5285512;28;20016;-68
2022/07/06 17:30:43;;;;;;;7.30;3.00;;;;;;;21.53;49.15;102140.47;5281654;28;20056;-69
